sensor_id;sensor_type;location;lat;lon;timestamp;temperature;humidity
21047;DHT22;10682;50.874;3.656;2024-01-10T00:02:10;-4.30;99.90
21047;DHT22;10682;50.874;3.656;2024-01-10T00:04:37;-4.30;99.90
21047;DHT22;10682;50.874;3.656;2024-01-10T00:07:04;-4.30;99.90
21047;DHT22;10682;50.874;3.656;2024-01-10T00:09:32;-4.30;99.90
21047;DHT22;10682;50.874;3.656;2024-01-10T00:15:17;-4.30;99.90
21047;DHT22;10682;50.874;3.656;2024-01-10T00:17:54;-4.30;99.90
21047;DHT22;10682;50.874;3.656;2024-01-10T00:20:21;-4.30;99.90
21047;DHT22;10682;50.874;3.656;2024-01-10T00:22:48;-4.30;99.90
21047;DHT22;10682;50.874;3.656;2024-01-10T00:25:16;-4.30;99.90
21047;DHT22;10682;50.874;3.656;2024-01-10T00:27:43;-4.30;99.90
21047;DHT22;10682;50.874;3.656;2024-01-10T00:30:10;-4.30;99.90
21047;DHT22;10682;50.874;3.656;2024-01-10T00:32:38;-4.20;99.90
21047;DHT22;10682;50.874;3.656;2024-01-10T00:35:05;-4.20;99.90
21047;DHT22;10682;50.874;3.656;2024-01-10T00:37:32;-4.30;99.90
21047;DHT22;10682;50.874;3.656;2024-01-10T00:40:00;-4.30;99.90
21047;DHT22;10682;50.874;3.656;2024-01-10T00:42:27;-4.30;99.90
21047;DHT22;10682;50.874;3.656;2024-01-10T00:44:54;-4.30;99.90
21047;DHT22;10682;50.874;3.656;2024-01-10T00:47:21;-4.30;99.90
21047;DHT22;10682;50.874;3.656;2024-01-10T00:49:49;-4.40;99.90
21047;DHT22;10682;50.874;3.656;2024-01-10T00:52:16;-4.40;99.90
21047;DHT22;10682;50.874;3.656;2024-01-10T00:54:43;-4.40;99.90
21047;DHT22;10682;50.874;3.656;2024-01-10T00:57:12;-4.40;99.90
21047;DHT22;10682;50.874;3.656;2024-01-10T00:59:41;-4.30;99.90
21047;DHT22;10682;50.874;3.656;2024-01-10T01:02:08;-4.30;99.90
21047;DHT22;10682;50.874;3.656;2024-01-10T01:04:35;-4.30;99.90
21047;DHT22;10682;50.874;3.656;2024-01-10T01:07:03;-4.30;99.90
21047;DHT22;10682;50.874;3.656;2024-01-10T01:09:30;-4.30;99.90
21047;DHT22;10682;50.874;3.656;2024-01-10T01:11:57;-4.30;99.90
21047;DHT22;10682;50.874;3.656;2024-01-10T01:14:24;-4.30;99.90
21047;DHT22;10682;50.874;3.656;2024-01-10T01:16:52;-4.30;99.90
21047;DHT22;10682;50.874;3.656;2024-01-10T01:19:19;-4.30;99.90
21047;DHT22;10682;50.874;3.656;2024-01-10T01:21:46;-4.40;99.90
21047;DHT22;10682;50.874;3.656;2024-01-10T01:24:14;-4.40;99.90
21047;DHT22;10682;50.874;3.656;2024-01-10T01:26:41;-4.40;99.90
21047;DHT22;10682;50.874;3.656;2024-01-10T01:29:09;-4.50;99.90
21047;DHT22;10682;50.874;3.656;2024-01-10T01:31:36;-4.50;99.90
21047;DHT22;10682;50.874;3.656;2024-01-10T01:34:05;-4.50;99.90
21047;DHT22;10682;50.874;3.656;2024-01-10T01:36:32;-4.60;99.90
21047;DHT22;10682;50.874;3.656;2024-01-10T01:38:59;-4.60;99.90
21047;DHT22;10682;50.874;3.656;2024-01-10T01:41:26;-4.60;99.90
21047;DHT22;10682;50.874;3.656;2024-01-10T01:43:54;-4.60;99.90
21047;DHT22;10682;50.874;3.656;2024-01-10T01:46:22;-4.60;99.90
21047;DHT22;10682;50.874;3.656;2024-01-10T01:48:50;-4.50;99.90
21047;DHT22;10682;50.874;3.656;2024-01-10T01:51:20;-4.50;99.90
21047;DHT22;10682;50.874;3.656;2024-01-10T01:53:52;-4.50;99.90
21047;DHT22;10682;50.874;3.656;2024-01-10T02:00:29;-4.50;99.90
21047;DHT22;10682;50.874;3.656;2024-01-10T02:02:58;-4.60;99.90
21047;DHT22;10682;50.874;3.656;2024-01-10T02:05:31;-4.60;99.90
21047;DHT22;10682;50.874;3.656;2024-01-10T02:07:58;-4.50;99.90
21047;DHT22;10682;50.874;3.656;2024-01-10T02:10:26;-4.60;99.90
21047;DHT22;10682;50.874;3.656;2024-01-10T02:12:53;-4.60;99.90
21047;DHT22;10682;50.874;3.656;2024-01-10T02:15:20;-4.60;99.90
21047;DHT22;10682;50.874;3.656;2024-01-10T02:17:47;-4.60;99.90
21047;DHT22;10682;50.874;3.656;2024-01-10T02:20:15;-4.70;99.90
21047;DHT22;10682;50.874;3.656;2024-01-10T02:22:47;-4.70;99.90
21047;DHT22;10682;50.874;3.656;2024-01-10T02:25:17;-4.70;99.90
21047;DHT22;10682;50.874;3.656;2024-01-10T02:27:44;-4.70;99.90
21047;DHT22;10682;50.874;3.656;2024-01-10T02:30:12;-4.80;99.90
21047;DHT22;10682;50.874;3.656;2024-01-10T02:32:39;-4.80;99.90
21047;DHT22;10682;50.874;3.656;2024-01-10T02:35:07;-4.80;99.90
21047;DHT22;10682;50.874;3.656;2024-01-10T02:37:35;-4.80;99.90
21047;DHT22;10682;50.874;3.656;2024-01-10T02:40:02;-4.80;99.90
21047;DHT22;10682;50.874;3.656;2024-01-10T02:42:32;-4.90;99.90
21047;DHT22;10682;50.874;3.656;2024-01-10T02:44:59;-4.90;99.90
21047;DHT22;10682;50.874;3.656;2024-01-10T02:47:26;-5.00;99.90
21047;DHT22;10682;50.874;3.656;2024-01-10T02:49:55;-5.00;99.90
21047;DHT22;10682;50.874;3.656;2024-01-10T02:52:23;-4.90;99.90
21047;DHT22;10682;50.874;3.656;2024-01-10T02:54:50;-5.00;99.90
21047;DHT22;10682;50.874;3.656;2024-01-10T02:57:18;-5.00;99.90
21047;DHT22;10682;50.874;3.656;2024-01-10T02:59:45;-5.00;99.90
21047;DHT22;10682;50.874;3.656;2024-01-10T03:02:12;-5.00;99.90
21047;DHT22;10682;50.874;3.656;2024-01-10T03:04:40;-5.00;99.90
21047;DHT22;10682;50.874;3.656;2024-01-10T03:07:08;-5.10;99.90
21047;DHT22;10682;50.874;3.656;2024-01-10T03:09:35;-5.00;99.90
21047;DHT22;10682;50.874;3.656;2024-01-10T03:12:02;-5.00;99.90
21047;DHT22;10682;50.874;3.656;2024-01-10T03:14:30;-5.10;99.90
21047;DHT22;10682;50.874;3.656;2024-01-10T03:16:58;-5.10;99.90
21047;DHT22;10682;50.874;3.656;2024-01-10T03:19:25;-5.10;99.90
21047;DHT22;10682;50.874;3.656;2024-01-10T03:21:52;-5.10;99.90
21047;DHT22;10682;50.874;3.656;2024-01-10T03:24:20;-5.10;99.90
21047;DHT22;10682;50.874;3.656;2024-01-10T03:26:50;-5.10;99.90
21047;DHT22;10682;50.874;3.656;2024-01-10T03:29:19;-5.20;99.90
21047;DHT22;10682;50.874;3.656;2024-01-10T03:31:46;-5.20;99.90
21047;DHT22;10682;50.874;3.656;2024-01-10T03:34:16;-5.20;99.90
21047;DHT22;10682;50.874;3.656;2024-01-10T03:36:45;-5.20;99.90
21047;DHT22;10682;50.874;3.656;2024-01-10T03:42:33;-5.20;99.90
21047;DHT22;10682;50.874;3.656;2024-01-10T03:48:00;-5.20;99.90
21047;DHT22;10682;50.874;3.656;2024-01-10T03:50:28;-5.30;99.90
21047;DHT22;10682;50.874;3.656;2024-01-10T03:52:55;-5.30;99.90
21047;DHT22;10682;50.874;3.656;2024-01-10T03:55:22;-5.30;99.90
21047;DHT22;10682;50.874;3.656;2024-01-10T03:57:49;-5.40;99.90
21047;DHT22;10682;50.874;3.656;2024-01-10T04:00:17;-5.40;99.90
21047;DHT22;10682;50.874;3.656;2024-01-10T04:02:44;-5.40;99.90
21047;DHT22;10682;50.874;3.656;2024-01-10T04:05:12;-5.40;99.90
21047;DHT22;10682;50.874;3.656;2024-01-10T04:07:44;-5.50;99.90
21047;DHT22;10682;50.874;3.656;2024-01-10T04:10:11;-5.50;99.90
21047;DHT22;10682;50.874;3.656;2024-01-10T04:12:42;-5.50;99.90
21047;DHT22;10682;50.874;3.656;2024-01-10T04:15:11;-5.50;99.90
21047;DHT22;10682;50.874;3.656;2024-01-10T04:17:38;-5.50;99.90
21047;DHT22;10682;50.874;3.656;2024-01-10T04:20:06;-5.60;99.90
21047;DHT22;10682;50.874;3.656;2024-01-10T04:22:34;-5.60;99.90
21047;DHT22;10682;50.874;3.656;2024-01-10T04:25:03;-5.60;99.90
21047;DHT22;10682;50.874;3.656;2024-01-10T04:27:32;-5.60;99.90
21047;DHT22;10682;50.874;3.656;2024-01-10T04:29:59;-5.60;99.90
21047;DHT22;10682;50.874;3.656;2024-01-10T04:32:26;-5.60;99.90
21047;DHT22;10682;50.874;3.656;2024-01-10T04:34:54;-5.60;99.90
21047;DHT22;10682;50.874;3.656;2024-01-10T04:37:21;-5.60;99.90
21047;DHT22;10682;50.874;3.656;2024-01-10T04:39:49;-5.60;99.90
21047;DHT22;10682;50.874;3.656;2024-01-10T04:42:16;-5.60;99.90
21047;DHT22;10682;50.874;3.656;2024-01-10T04:44:43;-5.70;99.90
21047;DHT22;10682;50.874;3.656;2024-01-10T04:47:10;-5.70;99.90
21047;DHT22;10682;50.874;3.656;2024-01-10T04:49:39;-5.70;99.90
21047;DHT22;10682;50.874;3.656;2024-01-10T04:52:07;-5.70;99.90
21047;DHT22;10682;50.874;3.656;2024-01-10T04:54:34;-5.80;99.90
21047;DHT22;10682;50.874;3.656;2024-01-10T04:57:01;-5.80;99.90
21047;DHT22;10682;50.874;3.656;2024-01-10T04:59:28;-5.80;99.90
21047;DHT22;10682;50.874;3.656;2024-01-10T05:01:55;-5.80;99.90
21047;DHT22;10682;50.874;3.656;2024-01-10T05:04:22;-5.70;99.90
21047;DHT22;10682;50.874;3.656;2024-01-10T05:06:50;-5.70;99.90
21047;DHT22;10682;50.874;3.656;2024-01-10T05:09:17;-5.60;99.90
21047;DHT22;10682;50.874;3.656;2024-01-10T05:11:44;-5.60;99.90
21047;DHT22;10682;50.874;3.656;2024-01-10T05:14:17;-5.60;99.90
21047;DHT22;10682;50.874;3.656;2024-01-10T05:16:48;-5.50;99.90
21047;DHT22;10682;50.874;3.656;2024-01-10T05:19:15;-5.40;99.90
21047;DHT22;10682;50.874;3.656;2024-01-10T05:21:43;-5.40;99.90
21047;DHT22;10682;50.874;3.656;2024-01-10T05:24:44;-5.40;99.90
21047;DHT22;10682;50.874;3.656;2024-01-10T05:27:11;-5.50;99.90
21047;DHT22;10682;50.874;3.656;2024-01-10T05:32:44;-5.50;99.90
21047;DHT22;10682;50.874;3.656;2024-01-10T05:35:11;-5.50;99.90
21047;DHT22;10682;50.874;3.656;2024-01-10T05:37:38;-5.40;99.90
21047;DHT22;10682;50.874;3.656;2024-01-10T05:40:06;-5.40;99.90
21047;DHT22;10682;50.874;3.656;2024-01-10T05:42:34;-5.50;99.90
21047;DHT22;10682;50.874;3.656;2024-01-10T05:45:01;-5.50;99.90
21047;DHT22;10682;50.874;3.656;2024-01-10T05:47:29;-5.50;99.90
21047;DHT22;10682;50.874;3.656;2024-01-10T05:49:56;-5.50;99.90
21047;DHT22;10682;50.874;3.656;2024-01-10T05:52:23;-5.50;99.90
21047;DHT22;10682;50.874;3.656;2024-01-10T05:54:50;-5.50;99.90
21047;DHT22;10682;50.874;3.656;2024-01-10T05:57:19;-5.50;99.90
21047;DHT22;10682;50.874;3.656;2024-01-10T05:59:48;-5.60;99.90
21047;DHT22;10682;50.874;3.656;2024-01-10T06:02:15;-5.50;99.90
21047;DHT22;10682;50.874;3.656;2024-01-10T06:04:43;-5.60;99.90
21047;DHT22;10682;50.874;3.656;2024-01-10T06:07:11;-5.50;99.90
21047;DHT22;10682;50.874;3.656;2024-01-10T06:09:38;-5.50;99.90
21047;DHT22;10682;50.874;3.656;2024-01-10T06:12:06;-5.50;99.90
21047;DHT22;10682;50.874;3.656;2024-01-10T06:14:34;-5.60;99.90
21047;DHT22;10682;50.874;3.656;2024-01-10T06:17:02;-5.60;99.90
21047;DHT22;10682;50.874;3.656;2024-01-10T06:19:31;-5.50;99.90
21047;DHT22;10682;50.874;3.656;2024-01-10T06:21:58;-5.60;99.90
21047;DHT22;10682;50.874;3.656;2024-01-10T06:24:26;-5.60;99.90
21047;DHT22;10682;50.874;3.656;2024-01-10T06:26:56;-5.60;99.90
21047;DHT22;10682;50.874;3.656;2024-01-10T06:29:23;-5.50;99.90
21047;DHT22;10682;50.874;3.656;2024-01-10T06:31:52;-5.40;99.90
21047;DHT22;10682;50.874;3.656;2024-01-10T06:34:20;-5.30;99.90
21047;DHT22;10682;50.874;3.656;2024-01-10T06:36:47;-5.30;99.90
21047;DHT22;10682;50.874;3.656;2024-01-10T06:39:15;-5.30;99.90
21047;DHT22;10682;50.874;3.656;2024-01-10T06:41:43;-5.20;99.90
21047;DHT22;10682;50.874;3.656;2024-01-10T06:44:10;-5.20;99.90
21047;DHT22;10682;50.874;3.656;2024-01-10T06:46:41;-5.20;99.90
21047;DHT22;10682;50.874;3.656;2024-01-10T06:49:08;-5.20;99.90
21047;DHT22;10682;50.874;3.656;2024-01-10T06:51:35;-5.20;99.90
21047;DHT22;10682;50.874;3.656;2024-01-10T06:54:02;-5.20;99.90
21047;DHT22;10682;50.874;3.656;2024-01-10T06:56:31;-5.10;99.90
21047;DHT22;10682;50.874;3.656;2024-01-10T06:59:00;-5.10;99.90
21047;DHT22;10682;50.874;3.656;2024-01-10T07:01:28;-5.10;99.90
21047;DHT22;10682;50.874;3.656;2024-01-10T07:03:55;-5.10;99.90
21047;DHT22;10682;50.874;3.656;2024-01-10T07:06:22;-5.10;99.90
21047;DHT22;10682;50.874;3.656;2024-01-10T07:08:50;-5.10;99.90
21047;DHT22;10682;50.874;3.656;2024-01-10T07:15:01;-5.10;99.90
21047;DHT22;10682;50.874;3.656;2024-01-10T07:17:37;-5.20;99.90
21047;DHT22;10682;50.874;3.656;2024-01-10T07:20:05;-5.20;99.90
21047;DHT22;10682;50.874;3.656;2024-01-10T07:22:34;-5.20;99.90
21047;DHT22;10682;50.874;3.656;2024-01-10T07:25:02;-5.20;99.90
21047;DHT22;10682;50.874;3.656;2024-01-10T07:27:32;-5.20;99.90
21047;DHT22;10682;50.874;3.656;2024-01-10T07:29:59;-5.20;99.90
21047;DHT22;10682;50.874;3.656;2024-01-10T07:32:26;-5.20;99.90
21047;DHT22;10682;50.874;3.656;2024-01-10T07:34:53;-5.20;99.90
21047;DHT22;10682;50.874;3.656;2024-01-10T07:37:23;-5.20;99.90
21047;DHT22;10682;50.874;3.656;2024-01-10T07:39:51;-5.20;99.90
21047;DHT22;10682;50.874;3.656;2024-01-10T07:42:18;-5.20;99.90
21047;DHT22;10682;50.874;3.656;2024-01-10T07:44:45;-5.20;99.90
21047;DHT22;10682;50.874;3.656;2024-01-10T07:47:14;-5.10;99.90
21047;DHT22;10682;50.874;3.656;2024-01-10T07:49:42;-5.10;99.90
21047;DHT22;10682;50.874;3.656;2024-01-10T07:52:09;-5.10;99.90
21047;DHT22;10682;50.874;3.656;2024-01-10T07:54:36;-5.10;99.90
21047;DHT22;10682;50.874;3.656;2024-01-10T07:57:13;-5.10;99.90
21047;DHT22;10682;50.874;3.656;2024-01-10T07:59:40;-5.10;99.90
21047;DHT22;10682;50.874;3.656;2024-01-10T08:02:07;-5.10;99.90
21047;DHT22;10682;50.874;3.656;2024-01-10T08:04:34;-5.00;99.90
21047;DHT22;10682;50.874;3.656;2024-01-10T08:07:02;-4.90;99.90
21047;DHT22;10682;50.874;3.656;2024-01-10T08:09:30;-4.60;99.90
21047;DHT22;10682;50.874;3.656;2024-01-10T08:11:57;-4.20;99.90
21047;DHT22;10682;50.874;3.656;2024-01-10T08:14:24;-3.80;99.90
21047;DHT22;10682;50.874;3.656;2024-01-10T08:16:52;-3.30;99.90
21047;DHT22;10682;50.874;3.656;2024-01-10T08:19:25;-2.90;99.90
21047;DHT22;10682;50.874;3.656;2024-01-10T08:21:53;-2.40;99.90
21047;DHT22;10682;50.874;3.656;2024-01-10T08:24:20;-2.00;99.90
21047;DHT22;10682;50.874;3.656;2024-01-10T08:26:48;-1.60;99.90
21047;DHT22;10682;50.874;3.656;2024-01-10T08:29:18;-1.40;99.90
21047;DHT22;10682;50.874;3.656;2024-01-10T08:31:47;-1.20;99.90
21047;DHT22;10682;50.874;3.656;2024-01-10T08:34:15;-1.00;99.90
21047;DHT22;10682;50.874;3.656;2024-01-10T08:36:42;-0.80;99.90
21047;DHT22;10682;50.874;3.656;2024-01-10T08:39:09;-0.50;99.90
21047;DHT22;10682;50.874;3.656;2024-01-10T08:41:38;-0.40;99.90
21047;DHT22;10682;50.874;3.656;2024-01-10T08:44:11;-0.30;99.90
21047;DHT22;10682;50.874;3.656;2024-01-10T08:46:38;-0.20;99.90
21047;DHT22;10682;50.874;3.656;2024-01-10T08:49:05;-0.20;99.90
21047;DHT22;10682;50.874;3.656;2024-01-10T08:51:33;-0.30;99.90
21047;DHT22;10682;50.874;3.656;2024-01-10T08:54:00;-0.30;99.90
21047;DHT22;10682;50.874;3.656;2024-01-10T08:59:56;-0.10;99.90
21047;DHT22;10682;50.874;3.656;2024-01-10T09:02:33;-0.20;99.90
21047;DHT22;10682;50.874;3.656;2024-01-10T09:05:03;-0.40;99.90
21047;DHT22;10682;50.874;3.656;2024-01-10T09:07:31;-0.40;99.90
21047;DHT22;10682;50.874;3.656;2024-01-10T09:09:58;-0.40;99.90
21047;DHT22;10682;50.874;3.656;2024-01-10T09:12:25;-0.50;99.90
21047;DHT22;10682;50.874;3.656;2024-01-10T09:14:52;-0.50;99.90
21047;DHT22;10682;50.874;3.656;2024-01-10T09:17:19;-0.60;99.90
21047;DHT22;10682;50.874;3.656;2024-01-10T09:19:47;-0.60;99.90
21047;DHT22;10682;50.874;3.656;2024-01-10T09:22:14;-0.70;99.90
21047;DHT22;10682;50.874;3.656;2024-01-10T09:24:41;-0.80;99.90
21047;DHT22;10682;50.874;3.656;2024-01-10T09:27:13;-0.90;99.90
21047;DHT22;10682;50.874;3.656;2024-01-10T09:29:40;-0.80;99.90
21047;DHT22;10682;50.874;3.656;2024-01-10T09:32:07;-0.80;99.90
21047;DHT22;10682;50.874;3.656;2024-01-10T09:34:34;-0.80;99.90
21047;DHT22;10682;50.874;3.656;2024-01-10T09:37:01;-0.90;99.90
21047;DHT22;10682;50.874;3.656;2024-01-10T09:39:29;-0.90;99.90
21047;DHT22;10682;50.874;3.656;2024-01-10T09:41:58;-0.90;99.90
21047;DHT22;10682;50.874;3.656;2024-01-10T09:44:25;-0.90;99.90
21047;DHT22;10682;50.874;3.656;2024-01-10T09:46:54;-1.10;99.90
21047;DHT22;10682;50.874;3.656;2024-01-10T09:49:22;-1.10;99.90
21047;DHT22;10682;50.874;3.656;2024-01-10T09:51:53;-1.20;99.90
21047;DHT22;10682;50.874;3.656;2024-01-10T09:54:24;-1.20;99.90
21047;DHT22;10682;50.874;3.656;2024-01-10T09:56:53;-1.20;99.90
21047;DHT22;10682;50.874;3.656;2024-01-10T09:59:20;-1.30;99.90
21047;DHT22;10682;50.874;3.656;2024-01-10T10:01:47;-1.30;99.90
21047;DHT22;10682;50.874;3.656;2024-01-10T10:04:15;-1.30;99.90
21047;DHT22;10682;50.874;3.656;2024-01-10T10:06:45;-1.40;99.90
21047;DHT22;10682;50.874;3.656;2024-01-10T10:09:12;-1.50;99.90
21047;DHT22;10682;50.874;3.656;2024-01-10T10:11:40;-1.40;99.90
21047;DHT22;10682;50.874;3.656;2024-01-10T10:14:18;-1.30;99.90
21047;DHT22;10682;50.874;3.656;2024-01-10T10:16:46;-1.30;99.90
21047;DHT22;10682;50.874;3.656;2024-01-10T10:19:22;-1.10;99.90
21047;DHT22;10682;50.874;3.656;2024-01-10T10:22:10;-1.00;99.90
21047;DHT22;10682;50.874;3.656;2024-01-10T10:24:47;-1.00;99.90
21047;DHT22;10682;50.874;3.656;2024-01-10T10:27:14;-1.00;99.90
21047;DHT22;10682;50.874;3.656;2024-01-10T10:29:43;-0.90;99.90
21047;DHT22;10682;50.874;3.656;2024-01-10T10:32:15;-0.80;99.90
21047;DHT22;10682;50.874;3.656;2024-01-10T10:34:43;-0.80;99.90
21047;DHT22;10682;50.874;3.656;2024-01-10T10:37:10;-0.70;99.90
21047;DHT22;10682;50.874;3.656;2024-01-10T10:39:39;-0.70;99.90
21047;DHT22;10682;50.874;3.656;2024-01-10T10:42:40;-0.70;99.90
21047;DHT22;10682;50.874;3.656;2024-01-10T10:45:14;-0.70;99.90
21047;DHT22;10682;50.874;3.656;2024-01-10T10:47:46;-0.60;99.90
21047;DHT22;10682;50.874;3.656;2024-01-10T10:50:24;-0.70;99.90
21047;DHT22;10682;50.874;3.656;2024-01-10T10:52:53;-0.90;99.90
21047;DHT22;10682;50.874;3.656;2024-01-10T10:55:23;-0.90;99.90
21047;DHT22;10682;50.874;3.656;2024-01-10T10:57:52;-0.90;99.90
21047;DHT22;10682;50.874;3.656;2024-01-10T11:00:31;-0.90;99.90
21047;DHT22;10682;50.874;3.656;2024-01-10T11:02:59;-0.90;99.90
21047;DHT22;10682;50.874;3.656;2024-01-10T11:05:29;-0.80;99.90
21047;DHT22;10682;50.874;3.656;2024-01-10T11:07:58;-0.80;99.90
21047;DHT22;10682;50.874;3.656;2024-01-10T11:10:33;-0.70;99.90
21047;DHT22;10682;50.874;3.656;2024-01-10T11:16:35;-0.60;99.90
21047;DHT22;10682;50.874;3.656;2024-01-10T11:24:52;-0.20;99.90
21047;DHT22;10682;50.874;3.656;2024-01-10T11:27:19;-0.10;99.90
21047;DHT22;10682;50.874;3.656;2024-01-10T11:29:46;0.00;99.90
21047;DHT22;10682;50.874;3.656;2024-01-10T11:32:16;0.00;99.90
21047;DHT22;10682;50.874;3.656;2024-01-10T11:35:16;0.00;99.90
21047;DHT22;10682;50.874;3.656;2024-01-10T11:37:47;0.00;99.90
21047;DHT22;10682;50.874;3.656;2024-01-10T11:40:46;0.10;99.90
21047;DHT22;10682;50.874;3.656;2024-01-10T11:43:14;0.10;99.90
21047;DHT22;10682;50.874;3.656;2024-01-10T11:45:57;0.30;99.90
21047;DHT22;10682;50.874;3.656;2024-01-10T11:48:28;0.50;99.90
21047;DHT22;10682;50.874;3.656;2024-01-10T11:50:57;0.60;99.90
21047;DHT22;10682;50.874;3.656;2024-01-10T11:56:13;0.70;99.90
21047;DHT22;10682;50.874;3.656;2024-01-10T11:59:02;0.70;99.90
21047;DHT22;10682;50.874;3.656;2024-01-10T12:01:38;0.80;99.90
21047;DHT22;10682;50.874;3.656;2024-01-10T12:04:07;0.80;99.90
21047;DHT22;10682;50.874;3.656;2024-01-10T12:06:46;0.80;99.90
21047;DHT22;10682;50.874;3.656;2024-01-10T12:09:14;0.80;99.90
21047;DHT22;10682;50.874;3.656;2024-01-10T12:11:42;0.70;99.90
21047;DHT22;10682;50.874;3.656;2024-01-10T12:14:09;0.60;99.90
21047;DHT22;10682;50.874;3.656;2024-01-10T12:16:37;0.40;99.90
21047;DHT22;10682;50.874;3.656;2024-01-10T12:19:05;0.30;99.90
21047;DHT22;10682;50.874;3.656;2024-01-10T12:21:32;0.10;99.90
21047;DHT22;10682;50.874;3.656;2024-01-10T12:24:03;0.00;99.90
21047;DHT22;10682;50.874;3.656;2024-01-10T12:26:33;0.00;99.90
21047;DHT22;10682;50.874;3.656;2024-01-10T12:32:22;0.30;99.90
21047;DHT22;10682;50.874;3.656;2024-01-10T12:35:01;0.40;99.90
21047;DHT22;10682;50.874;3.656;2024-01-10T12:37:30;0.50;99.90
21047;DHT22;10682;50.874;3.656;2024-01-10T12:39:57;0.60;99.90
21047;DHT22;10682;50.874;3.656;2024-01-10T12:42:25;0.70;99.90
21047;DHT22;10682;50.874;3.656;2024-01-10T12:44:53;0.70;99.90
21047;DHT22;10682;50.874;3.656;2024-01-10T12:47:20;0.60;99.90
21047;DHT22;10682;50.874;3.656;2024-01-10T12:49:49;0.60;99.90
21047;DHT22;10682;50.874;3.656;2024-01-10T12:52:16;0.60;99.90
21047;DHT22;10682;50.874;3.656;2024-01-10T12:54:48;0.60;99.90
21047;DHT22;10682;50.874;3.656;2024-01-10T12:57:15;0.60;99.90
21047;DHT22;10682;50.874;3.656;2024-01-10T12:59:42;0.60;99.90
21047;DHT22;10682;50.874;3.656;2024-01-10T13:02:09;0.50;99.90
21047;DHT22;10682;50.874;3.656;2024-01-10T13:04:36;0.40;99.90
21047;DHT22;10682;50.874;3.656;2024-01-10T13:07:03;0.40;99.90
21047;DHT22;10682;50.874;3.656;2024-01-10T13:09:30;0.40;99.90
21047;DHT22;10682;50.874;3.656;2024-01-10T13:11:59;0.40;99.90
21047;DHT22;10682;50.874;3.656;2024-01-10T13:14:27;0.50;99.90
21047;DHT22;10682;50.874;3.656;2024-01-10T13:16:54;0.60;99.90
21047;DHT22;10682;50.874;3.656;2024-01-10T13:19:26;0.70;99.90
21047;DHT22;10682;50.874;3.656;2024-01-10T13:21:53;0.80;99.90
21047;DHT22;10682;50.874;3.656;2024-01-10T13:24:22;0.90;99.90
21047;DHT22;10682;50.874;3.656;2024-01-10T13:26:49;0.90;99.90
21047;DHT22;10682;50.874;3.656;2024-01-10T13:29:16;0.90;99.90
21047;DHT22;10682;50.874;3.656;2024-01-10T13:31:44;1.00;99.90
21047;DHT22;10682;50.874;3.656;2024-01-10T13:34:11;1.00;99.90
21047;DHT22;10682;50.874;3.656;2024-01-10T13:36:39;1.00;99.90
21047;DHT22;10682;50.874;3.656;2024-01-10T13:39:06;1.00;99.90
21047;DHT22;10682;50.874;3.656;2024-01-10T13:41:34;1.10;99.90
21047;DHT22;10682;50.874;3.656;2024-01-10T13:44:01;1.20;99.90
21047;DHT22;10682;50.874;3.656;2024-01-10T13:46:28;1.40;99.90
21047;DHT22;10682;50.874;3.656;2024-01-10T13:48:55;1.40;99.90
21047;DHT22;10682;50.874;3.656;2024-01-10T13:51:23;1.50;99.90
21047;DHT22;10682;50.874;3.656;2024-01-10T13:53:50;1.40;99.90
21047;DHT22;10682;50.874;3.656;2024-01-10T13:56:17;1.40;99.90
21047;DHT22;10682;50.874;3.656;2024-01-10T13:58:44;1.40;99.90
21047;DHT22;10682;50.874;3.656;2024-01-10T14:01:11;1.30;99.90
21047;DHT22;10682;50.874;3.656;2024-01-10T14:03:38;1.30;99.90
21047;DHT22;10682;50.874;3.656;2024-01-10T14:06:06;1.30;99.90
21047;DHT22;10682;50.874;3.656;2024-01-10T14:08:33;1.30;99.90
21047;DHT22;10682;50.874;3.656;2024-01-10T14:11:00;1.40;99.90
21047;DHT22;10682;50.874;3.656;2024-01-10T14:13:28;1.40;99.90
21047;DHT22;10682;50.874;3.656;2024-01-10T14:19:43;1.20;99.90
21047;DHT22;10682;50.874;3.656;2024-01-10T14:22:11;1.00;99.90
21047;DHT22;10682;50.874;3.656;2024-01-10T14:24:54;1.00;99.90
21047;DHT22;10682;50.874;3.656;2024-01-10T14:27:23;0.90;99.90
21047;DHT22;10682;50.874;3.656;2024-01-10T14:29:51;1.00;99.90
21047;DHT22;10682;50.874;3.656;2024-01-10T14:32:18;0.90;99.90
21047;DHT22;10682;50.874;3.656;2024-01-10T14:34:46;0.80;99.90
21047;DHT22;10682;50.874;3.656;2024-01-10T14:37:14;0.80;99.90
21047;DHT22;10682;50.874;3.656;2024-01-10T14:39:44;0.80;99.90
21047;DHT22;10682;50.874;3.656;2024-01-10T14:42:11;0.90;99.90
21047;DHT22;10682;50.874;3.656;2024-01-10T14:44:40;0.90;99.90
21047;DHT22;10682;50.874;3.656;2024-01-10T14:47:07;0.90;99.90
21047;DHT22;10682;50.874;3.656;2024-01-10T14:49:38;0.80;99.90
21047;DHT22;10682;50.874;3.656;2024-01-10T14:52:06;0.80;99.90
21047;DHT22;10682;50.874;3.656;2024-01-10T14:54:33;0.70;99.90
21047;DHT22;10682;50.874;3.656;2024-01-10T14:57:01;0.60;99.90
21047;DHT22;10682;50.874;3.656;2024-01-10T14:59:28;0.50;99.90
21047;DHT22;10682;50.874;3.656;2024-01-10T15:02:10;0.40;99.90
21047;DHT22;10682;50.874;3.656;2024-01-10T15:04:38;0.30;99.90
21047;DHT22;10682;50.874;3.656;2024-01-10T15:07:07;0.30;99.90
21047;DHT22;10682;50.874;3.656;2024-01-10T15:09:34;0.20;99.90
21047;DHT22;10682;50.874;3.656;2024-01-10T15:12:05;0.20;99.90
21047;DHT22;10682;50.874;3.656;2024-01-10T15:14:36;0.10;99.90
21047;DHT22;10682;50.874;3.656;2024-01-10T15:17:06;0.10;99.90
21047;DHT22;10682;50.874;3.656;2024-01-10T15:19:39;0.00;99.90
21047;DHT22;10682;50.874;3.656;2024-01-10T15:22:08;0.00;99.90
21047;DHT22;10682;50.874;3.656;2024-01-10T15:24:35;-0.10;99.90
21047;DHT22;10682;50.874;3.656;2024-01-10T15:27:02;-0.10;99.90
21047;DHT22;10682;50.874;3.656;2024-01-10T15:29:37;-0.20;99.90
21047;DHT22;10682;50.874;3.656;2024-01-10T15:32:05;-0.20;99.90
21047;DHT22;10682;50.874;3.656;2024-01-10T15:34:33;-0.20;99.90
21047;DHT22;10682;50.874;3.656;2024-01-10T15:37:00;-0.20;99.90
21047;DHT22;10682;50.874;3.656;2024-01-10T15:39:28;-0.30;99.90
21047;DHT22;10682;50.874;3.656;2024-01-10T15:41:55;-0.30;99.90
21047;DHT22;10682;50.874;3.656;2024-01-10T15:44:22;-0.40;99.90
21047;DHT22;10682;50.874;3.656;2024-01-10T15:46:49;-0.50;99.90
21047;DHT22;10682;50.874;3.656;2024-01-10T15:49:17;-0.60;99.90
21047;DHT22;10682;50.874;3.656;2024-01-10T15:51:46;-0.70;99.90
21047;DHT22;10682;50.874;3.656;2024-01-10T15:54:16;-0.80;99.90
21047;DHT22;10682;50.874;3.656;2024-01-10T15:56:43;-0.90;99.90
21047;DHT22;10682;50.874;3.656;2024-01-10T15:59:10;-1.00;99.90
21047;DHT22;10682;50.874;3.656;2024-01-10T16:01:39;-1.10;99.90
21047;DHT22;10682;50.874;3.656;2024-01-10T16:08:29;-1.20;99.90
21047;DHT22;10682;50.874;3.656;2024-01-10T16:10:56;-1.20;99.90
21047;DHT22;10682;50.874;3.656;2024-01-10T16:13:24;-1.10;99.90
21047;DHT22;10682;50.874;3.656;2024-01-10T16:15:55;-1.00;99.90
21047;DHT22;10682;50.874;3.656;2024-01-10T16:18:23;-0.90;99.90
21047;DHT22;10682;50.874;3.656;2024-01-10T16:20:51;-0.80;99.90
21047;DHT22;10682;50.874;3.656;2024-01-10T16:23:18;-0.70;99.90
21047;DHT22;10682;50.874;3.656;2024-01-10T16:25:45;-0.60;99.90
21047;DHT22;10682;50.874;3.656;2024-01-10T16:28:13;-0.50;99.90
21047;DHT22;10682;50.874;3.656;2024-01-10T16:30:40;-0.50;99.90
21047;DHT22;10682;50.874;3.656;2024-01-10T16:33:07;-0.40;99.90